Time;durP1;ratioP1;P1;durP2;ratioP2;P2;SDS_P1;SDS_P2;PMS_P1;PMS_P2;Temp;Humidity;BMP_temperature;BMP_pressure;BME280_temperature;BME280_humidity;BME280_pressure;Samples;Min_cycle;Max_cycle;Signal;HPM_P1;HPM_P2
2024/01/31 00:02:06;;;;;;;11.63;9.60;;;5.60;99.90;;;;;;5090487;28;20048;-85
2024/01/31 00:04:32;;;;;;;12.55;9.25;;;5.60;99.90;;;;;;5090577;28;20100;-85
2024/01/31 00:06:58;;;;;;;13.80;9.38;;;5.70;99.90;;;;;;5105973;28;20053;-85
2024/01/31 00:09:23;;;;;;;10.10;9.15;;;5.60;99.90;;;;;;5089968;28;20298;-84
2024/01/31 00:11:49;;;;;;;10.80;9.65;;;5.60;99.90;;;;;;5065491;28;20484;-85
2024/01/31 00:14:16;;;;;;;11.52;9.50;;;5.60;99.90;;;;;;5093694;28;20480;-85
2024/01/31 00:16:43;;;;;;;11.20;8.90;;;5.60;99.90;;;;;;5090844;28;20075;-85
2024/01/31 00:19:08;;;;;;;11.63;9.40;;;5.60;99.90;;;;;;5063916;28;20044;-84
2024/01/31 00:21:34;;;;;;;11.40;9.38;;;5.50;99.90;;;;;;5078829;28;20080;-84
2024/01/31 00:23:59;;;;;;;10.32;9.10;;;5.60;99.90;;;;;;5089335;28;20526;-85
2024/01/31 00:26:25;;;;;;;11.10;8.90;;;5.60;99.90;;;;;;5099456;28;20055;-85
2024/01/31 00:28:51;;;;;;;10.18;9.30;;;5.60;99.90;;;;;;5067929;28;20039;-85
2024/01/31 00:31:17;;;;;;;11.10;9.43;;;5.60;99.90;;;;;;5078991;27;20077;-85
2024/01/31 00:33:43;;;;;;;11.25;8.55;;;5.60;99.90;;;;;;5077436;27;20454;-85
2024/01/31 00:36:08;;;;;;;10.07;8.73;;;5.60;99.90;;;;;;5097108;28;20040;-86
2024/01/31 00:38:34;;;;;;;10.05;9.07;;;5.60;99.90;;;;;;5072149;28;20040;-86
2024/01/31 00:41:00;;;;;;;9.43;8.63;;;5.60;99.90;;;;;;5094496;27;20045;-85
2024/01/31 00:43:26;;;;;;;10.95;8.18;;;5.70;99.90;;;;;;5097062;28;20502;-85
2024/01/31 00:45:51;;;;;;;9.20;8.23;;;5.60;99.90;;;;;;5069013;28;20118;-85
2024/01/31 00:48:17;;;;;;;9.60;8.10;;;5.60;99.90;;;;;;5072169;28;20058;-85
2024/01/31 00:50:43;;;;;;;8.25;7.45;;;5.70;99.90;;;;;;5093027;27;20039;-85
2024/01/31 00:53:08;;;;;;;10.02;7.82;;;5.70;99.90;;;;;;5097539;27;20045;-85
2024/01/31 00:55:34;;;;;;;9.48;7.97;;;5.60;99.90;;;;;;5122564;27;20043;-85
2024/01/31 00:58:00;;;;;;;10.48;7.68;;;5.60;99.90;;;;;;5117024;27;20535;-85
2024/01/31 01:00:26;;;;;;;9.30;7.90;;;5.50;99.90;;;;;;5068559;27;20057;-85
2024/01/31 01:02:52;;;;;;;8.90;8.05;;;5.50;99.90;;;;;;5094520;27;20039;-85
2024/01/31 01:05:17;;;;;;;8.55;7.85;;;5.50;99.90;;;;;;5101054;27;20514;-85
2024/01/31 01:07:45;;;;;;;9.27;7.85;;;5.50;99.90;;;;;;5095778;28;20439;-85
2024/01/31 01:10:15;;;;;;;8.73;7.85;;;5.50;99.90;;;;;;5100123;27;20092;-85
2024/01/31 01:12:44;;;;;;;8.85;7.95;;;5.40;99.90;;;;;;5070810;28;20035;-85
2024/01/31 01:15:10;;;;;;;9.50;8.57;;;5.50;99.90;;;;;;5068762;28;20396;-85
2024/01/31 01:17:36;;;;;;;12.27;8.30;;;5.40;99.90;;;;;;5102823;28;20043;-85
2024/01/31 01:20:02;;;;;;;8.82;8.00;;;5.40;99.90;;;;;;5091893;28;20466;-85
2024/01/31 01:22:28;;;;;;;9.30;8.30;;;5.50;99.90;;;;;;5108225;28;20101;-85
2024/01/31 01:24:54;;;;;;;11.70;8.43;;;5.40;99.90;;;;;;5081967;28;20392;-85
2024/01/31 01:27:19;;;;;;;9.50;8.40;;;5.50;99.90;;;;;;5082542;28;20040;-85
2024/01/31 01:29:45;;;;;;;9.30;8.52;;;5.40;99.90;;;;;;5100580;28;20100;-85
2024/01/31 01:32:11;;;;;;;9.10;8.10;;;5.50;99.90;;;;;;5061347;28;20036;-85
2024/01/31 01:34:40;;;;;;;8.90;8.00;;;5.50;99.90;;;;;;5103473;28;20066;-85
2024/01/31 01:37:06;;;;;;;9.10;8.05;;;5.50;99.90;;;;;;5077151;28;20036;-85
2024/01/31 01:39:32;;;;;;;8.57;7.97;;;5.50;99.90;;;;;;5078831;28;20126;-85
2024/01/31 01:41:57;;;;;;;10.40;7.68;;;5.40;99.90;;;;;;5091210;27;20048;-85
2024/01/31 01:44:23;;;;;;;8.85;7.43;;;5.40;99.90;;;;;;5082241;28;20155;-85
2024/01/31 01:46:50;;;;;;;8.75;7.85;;;5.40;99.90;;;;;;5070258;28;20466;-84
2024/01/31 01:49:17;;;;;;;8.77;7.88;;;5.40;99.90;;;;;;5091573;28;20035;-85
2024/01/31 01:51:44;;;;;;;8.88;7.90;;;5.40;99.90;;;;;;5084935;28;20028;-85
2024/01/31 01:54:12;;;;;;;9.30;8.40;;;5.30;99.90;;;;;;5074567;28;20046;-85
2024/01/31 01:56:46;;;;;;;9.15;7.68;;;5.30;99.90;;;;;;5101789;27;20467;-85
2024/01/31 01:59:12;;;;;;;;;;;5.30;99.90;;;;;;5080643;28;20054;-86
2024/01/31 02:01:41;;;;;;;8.57;7.72;;;5.20;99.90;;;;;;5085923;27;20292;-85
2024/01/31 02:04:08;;;;;;;8.32;7.60;;;5.20;99.90;;;;;;5096620;28;20043;-85
2024/01/31 02:06:34;;;;;;;8.10;7.50;;;5.10;99.90;;;;;;5093987;27;20086;-85
2024/01/31 02:09:00;;;;;;;8.77;8.10;;;5.10;99.90;;;;;;5074091;28;20063;-84
2024/01/31 02:11:26;;;;;;;11.77;8.48;;;5.10;99.90;;;;;;5070735;28;20039;-84
2024/01/31 02:13:51;;;;;;;9.30;7.72;;;5.00;99.90;;;;;;5087292;28;20112;-85
2024/01/31 02:16:17;;;;;;;9.02;7.85;;;4.90;99.90;;;;;;5097247;28;20067;-85
2024/01/31 02:18:43;;;;;;;11.75;8.65;;;4.90;99.90;;;;;;5086920;28;20070;-85
2024/01/31 02:21:09;;;;;;;10.13;8.15;;;4.80;99.90;;;;;;5078631;28;20083;-85
2024/01/31 02:23:35;;;;;;;8.77;8.00;;;4.70;99.90;;;;;;5080475;27;20036;-84
2024/01/31 02:26:00;;;;;;;10.55;7.95;;;4.60;99.90;;;;;;5089695;28;20039;-85
2024/01/31 02:28:26;;;;;;;9.70;8.75;;;4.50;99.90;;;;;;5097765;27;20036;-85
2024/01/31 02:30:52;;;;;;;10.70;8.20;;;4.50;99.90;;;;;;5076625;28;20886;-85
2024/01/31 02:33:17;;;;;;;12.32;8.52;;;4.40;99.90;;;;;;5058138;28;20043;-85
2024/01/31 02:35:43;;;;;;;10.10;9.20;;;4.40;99.90;;;;;;5111603;27;20031;-85
2024/01/31 02:38:09;;;;;;;8.90;8.10;;;4.30;99.90;;;;;;5074189;28;20046;-85
2024/01/31 02:40:34;;;;;;;10.15;8.60;;;4.30;99.90;;;;;;5077958;27;20039;-85
2024/01/31 02:43:00;;;;;;;11.45;8.15;;;4.20;99.90;;;;;;5076083;28;20158;-85
2024/01/31 02:45:27;;;;;;;9.30;8.00;;;4.20;99.90;;;;;;5086330;28;20487;-84
2024/01/31 02:47:53;;;;;;;13.43;8.50;;;4.20;99.90;;;;;;5109308;28;20051;-84
2024/01/31 02:50:19;;;;;;;9.93;8.95;;;4.10;99.90;;;;;;5079392;28;20373;-84
2024/01/31 02:52:44;;;;;;;9.60;8.60;;;4.10;99.90;;;;;;5083173;27;20032;-84
2024/01/31 02:55:10;;;;;;;8.75;7.82;;;4.10;99.90;;;;;;5091964;28;20122;-84
2024/01/31 02:57:36;;;;;;;9.95;8.30;;;4.10;99.90;;;;;;5083054;28;20086;-84
2024/01/31 03:00:04;;;;;;;8.50;7.72;;;4.00;99.90;;;;;;5081351;27;20418;-85
2024/01/31 03:02:29;;;;;;;9.85;8.85;;;4.00;99.90;;;;;;5095766;28;20051;-84
2024/01/31 03:04:55;;;;;;;9.90;8.15;;;4.00;99.90;;;;;;5100109;28;20035;-85
2024/01/31 03:07:21;;;;;;;9.35;8.25;;;4.00;99.90;;;;;;5104560;27;20039;-84
2024/01/31 03:09:46;;;;;;;8.73;7.95;;;4.00;99.90;;;;;;5085678;27;20039;-84
2024/01/31 03:12:12;;;;;;;9.25;8.45;;;4.00;99.90;;;;;;5077393;27;20551;-84
2024/01/31 03:14:38;;;;;;;10.05;8.23;;;4.00;99.90;;;;;;5083366;28;20046;-85
2024/01/31 03:17:03;;;;;;;8.63;7.90;;;4.00;99.90;;;;;;5074918;28;20058;-84
2024/01/31 03:19:31;;;;;;;9.95;8.50;;;4.00;99.90;;;;;;5112227;27;20380;-84
2024/01/31 03:21:57;;;;;;;10.93;8.43;;;4.00;99.90;;;;;;5113516;27;20047;-84
2024/01/31 03:24:23;;;;;;;10.93;8.32;;;4.00;99.90;;;;;;5109517;27;20044;-85
2024/01/31 03:26:49;;;;;;;11.18;8.07;;;4.10;99.90;;;;;;5071857;28;20055;-84
2024/01/31 03:29:14;;;;;;;8.75;7.88;;;4.00;99.90;;;;;;5073700;28;20119;-85
2024/01/31 03:31:41;;;;;;;9.32;8.18;;;4.10;99.90;;;;;;5090405;28;20127;-84
2024/01/31 03:34:06;;;;;;;8.52;7.72;;;4.10;99.90;;;;;;5072868;28;20056;-85
2024/01/31 03:36:33;;;;;;;9.70;8.82;;;4.10;99.90;;;;;;5071920;28;20080;-85
2024/01/31 03:38:59;;;;;;;9.38;8.35;;;4.20;99.90;;;;;;5076157;28;20035;-84
2024/01/31 03:41:27;;;;;;;9.45;8.60;;;4.20;99.90;;;;;;5110772;28;20506;-85
2024/01/31 03:43:54;;;;;;;9.27;8.45;;;4.10;99.90;;;;;;5093905;27;20384;-85
2024/01/31 03:46:20;;;;;;;10.85;8.20;;;4.10;99.90;;;;;;5083281;28;20140;-84
2024/01/31 03:48:45;;;;;;;12.32;8.88;;;4.00;99.90;;;;;;5100699;28;20038;-85
2024/01/31 03:51:22;;;;;;;9.10;8.40;;;3.90;99.90;;;;;;5074091;28;20040;-84
2024/01/31 03:53:48;;;;;;;10.38;9.50;;;3.80;99.90;;;;;;5065422;27;20458;-84
2024/01/31 03:56:14;;;;;;;10.75;9.10;;;3.70;99.90;;;;;;5076327;28;20036;-85
2024/01/31 03:58:40;;;;;;;9.60;8.80;;;3.50;99.90;;;;;;5094487;28;20045;-84
2024/01/31 04:01:07;;;;;;;13.82;9.30;;;3.50;99.90;;;;;;5091800;28;20044;-85
2024/01/31 04:03:33;;;;;;;10.15;9.20;;;3.40;99.90;;;;;;5092750;28;20086;-85
2024/01/31 04:05:58;;;;;;;9.35;8.60;;;3.30;99.90;;;;;;5077840;27;20031;-84
2024/01/31 04:08:24;;;;;;;11.73;9.43;;;3.20;99.90;;;;;;5075990;28;20499;-85
2024/01/31 04:10:52;;;;;;;10.43;9.48;;;3.10;99.90;;;;;;5108879;28;20031;-85
2024/01/31 04:13:18;;;;;;;10.30;9.07;;;3.00;99.90;;;;;;5090635;27;20640;-84
2024/01/31 04:15:44;;;;;;;10.57;9.52;;;3.00;99.90;;;;;;5115592;27;20472;-85
2024/01/31 04:18:10;;;;;;;10.20;8.85;;;2.90;99.90;;;;;;5074657;28;20036;-84
2024/01/31 04:20:37;;;;;;;9.73;8.95;;;2.90;99.90;;;;;;5097781;28;20093;-84
2024/01/31 04:23:03;;;;;;;10.45;9.18;;;2.90;99.90;;;;;;5074686;28;20073;-84
2024/01/31 04:25:29;;;;;;;11.98;10.05;;;2.90;99.90;;;;;;5073455;28;20040;-84
2024/01/31 04:27:55;;;;;;;10.40;9.60;;;2.90;99.90;;;;;;5092996;28;20051;-84
2024/01/31 04:30:20;;;;;;;10.00;9.00;;;2.90;99.90;;;;;;5101536;28;20032;-85
2024/01/31 04:32:46;;;;;;;10.57;9.63;;;2.90;99.90;;;;;;5091069;28;20047;-85
2024/01/31 04:35:12;;;;;;;10.50;9.35;;;3.00;99.90;;;;;;5084698;27;20118;-85
2024/01/31 04:37:38;;;;;;;10.18;9.25;;;2.90;99.90;;;;;;5094752;27;20138;-85
2024/01/31 04:40:04;;;;;;;10.98;9.95;;;3.00;99.90;;;;;;5098845;27;20051;-85
2024/01/31 04:42:31;;;;;;;12.85;10.50;;;3.00;99.90;;;;;;5078281;28;20603;-85
2024/01/31 04:44:56;;;;;;;10.88;9.90;;;3.00;99.90;;;;;;5102970;27;20103;-84
2024/01/31 04:47:25;;;;;;;10.05;9.20;;;3.00;99.90;;;;;;5093601;28;20475;-84
2024/01/31 04:50:01;;;;;;;10.65;9.55;;;3.00;99.90;;;;;;5080047;28;20441;-84
2024/01/31 04:52:26;;;;;;;10.27;8.95;;;3.10;99.90;;;;;;5082634;28;20043;-85
2024/01/31 04:54:52;;;;;;;10.13;8.93;;;3.10;99.90;;;;;;5113465;27;20031;-85
2024/01/31 04:57:19;;;;;;;10.88;9.95;;;3.10;99.90;;;;;;5097365;28;20048;-85
2024/01/31 04:59:45;;;;;;;10.88;10.02;;;3.10;99.90;;;;;;5079280;28;20107;-85
2024/01/31 05:02:10;;;;;;;9.80;9.00;;;3.10;99.90;;;;;;5073292;28;20043;-84
2024/01/31 05:04:37;;;;;;;10.95;10.02;;;3.10;99.90;;;;;;5093093;28;20220;-85
2024/01/31 05:07:03;;;;;;;11.00;9.40;;;3.10;99.90;;;;;;5074287;28;20603;-85
2024/01/31 05:09:29;;;;;;;12.38;10.95;;;3.20;99.90;;;;;;5092593;27;20165;-84
2024/01/31 05:11:55;;;;;;;10.80;9.80;;;3.30;99.90;;;;;;5089024;27;20122;-86
2024/01/31 05:14:20;;;;;;;10.88;9.93;;;3.30;99.90;;;;;;5078664;28;20253;-86
2024/01/31 05:16:47;;;;;;;10.20;9.25;;;3.40;99.90;;;;;;5080548;27;20563;-86
2024/01/31 05:19:12;;;;;;;11.30;9.45;;;3.40;99.90;;;;;;5096555;28;20479;-86
2024/01/31 05:21:54;;;;;;;10.82;9.57;;;3.50;99.90;;;;;;5096863;27;20046;-86
2024/01/31 05:24:20;;;;;;;11.18;10.10;;;3.60;99.90;;;;;;5092667;28;20039;-85
2024/01/31 05:26:47;;;;;;;11.02;10.18;;;3.60;99.90;;;;;;5092448;28;20519;-86
2024/01/31 05:29:14;;;;;;;10.20;9.40;;;3.60;99.90;;;;;;5070778;28;20047;-86
2024/01/31 05:31:39;;;;;;;10.70;9.85;;;3.70;99.90;;;;;;5080759;28;20039;-85
2024/01/31 05:34:05;;;;;;;11.20;9.63;;;3.70;99.90;;;;;;5093271;27;20035;-86
2024/01/31 05:36:31;;;;;;;12.82;10.27;;;3.70;99.90;;;;;;5096302;28;20043;-86
2024/01/31 05:38:57;;;;;;;10.85;10.00;;;3.80;99.90;;;;;;5069076;27;20066;-85
2024/01/31 05:41:22;;;;;;;11.75;10.18;;;3.80;99.90;;;;;;5091909;28;20032;-86
2024/01/31 05:43:48;;;;;;;11.45;10.55;;;3.80;99.90;;;;;;5089327;28;20050;-85
2024/01/31 05:46:17;;;;;;;11.98;9.20;;;3.90;99.90;;;;;;5068489;28;20036;-85
2024/01/31 05:48:43;;;;;;;11.82;9.73;;;4.00;99.90;;;;;;5065879;28;20047;-86
2024/01/31 05:51:09;;;;;;;10.20;9.27;;;4.00;99.90;;;;;;5101096;27;20035;-85
2024/01/31 05:53:35;;;;;;;10.13;9.07;;;4.00;99.90;;;;;;5082733;28;20179;-85
2024/01/31 05:56:02;;;;;;;11.85;9.68;;;4.00;99.90;;;;;;5076124;27;20087;-86
2024/01/31 05:58:28;;;;;;;10.45;9.38;;;4.10;99.90;;;;;;5087460;28;20044;-86
2024/01/31 06:00:54;;;;;;;10.80;9.70;;;4.10;99.90;;;;;;5085626;28;20178;-85
2024/01/31 06:03:22;;;;;;;10.63;9.60;;;4.10;99.90;;;;;;5075824;28;20126;-85
2024/01/31 06:05:48;;;;;;;10.00;9.10;;;4.10;99.90;;;;;;5078595;28;20159;-85
2024/01/31 06:08:14;;;;;;;10.68;9.68;;;4.20;99.90;;;;;;5074003;28;20135;-86
2024/01/31 06:10:40;;;;;;;10.13;9.20;;;4.20;99.90;;;;;;5089008;27;20668;-86
2024/01/31 06:13:06;;;;;;;12.85;8.98;;;4.20;99.90;;;;;;5073722;28;20035;-85
2024/01/31 06:15:31;;;;;;;9.98;8.70;;;4.20;99.90;;;;;;5104885;27;20031;-85
2024/01/31 06:17:57;;;;;;;9.30;8.38;;;4.20;99.90;;;;;;5071495;28;20043;-85
2024/01/31 06:20:23;;;;;;;9.80;8.95;;;4.20;99.90;;;;;;5072039;27;20039;-85
2024/01/31 06:22:48;;;;;;;14.40;9.20;;;4.20;99.90;;;;;;5076331;27;20112;-85
2024/01/31 06:25:14;;;;;;;9.38;8.50;;;4.30;99.90;;;;;;5092159;28;20456;-85
2024/01/31 06:27:40;;;;;;;10.60;9.55;;;4.30;99.90;;;;;;5065811;28;20040;-85
2024/01/31 06:30:06;;;;;;;12.68;9.70;;;4.30;99.90;;;;;;5071623;28;20548;-85
2024/01/31 06:32:34;;;;;;;11.52;9.40;;;4.40;99.90;;;;;;5066419;28;20085;-86
2024/01/31 06:35:00;;;;;;;14.00;9.25;;;4.40;99.90;;;;;;5068713;28;20089;-85
2024/01/31 06:37:26;;;;;;;9.68;8.77;;;4.40;99.90;;;;;;5075871;28;20071;-85
2024/01/31 06:39:53;;;;;;;15.80;8.90;;;4.40;99.90;;;;;;5070936;28;20093;-85
2024/01/31 06:42:19;;;;;;;12.40;8.40;;;4.30;99.90;;;;;;5070925;28;20093;-85
2024/01/31 06:44:45;;;;;;;10.13;9.20;;;4.20;99.90;;;;;;5068872;28;20794;-85
2024/01/31 06:47:11;;;;;;;12.40;8.73;;;4.30;99.90;;;;;;5068225;28;20060;-85
2024/01/31 06:49:36;;;;;;;9.75;8.70;;;4.30;99.90;;;;;;5049778;28;20032;-85
2024/01/31 06:52:02;;;;;;;13.02;8.90;;;4.30;99.90;;;;;;5070968;28;20067;-86
2024/01/31 06:54:28;;;;;;;10.70;9.25;;;4.30;99.90;;;;;;5063716;28;20050;-85
2024/01/31 06:56:54;;;;;;;12.55;9.18;;;4.30;99.90;;;;;;5044846;28;20044;-84
2024/01/31 06:59:19;;;;;;;9.98;9.07;;;4.40;99.90;;;;;;5091544;28;20044;-85
2024/01/31 07:01:45;;;;;;;10.50;9.10;;;4.40;99.90;;;;;;5085651;28;20385;-85
2024/01/31 07:04:11;;;;;;;9.20;8.40;;;4.40;99.90;;;;;;5069914;28;20071;-85
2024/01/31 07:06:37;;;;;;;9.70;8.90;;;4.50;99.90;;;;;;5087317;28;20549;-85
2024/01/31 07:09:02;;;;;;;10.73;9.30;;;4.50;99.90;;;;;;5053937;28;20044;-85
2024/01/31 07:11:28;;;;;;;11.23;9.73;;;4.60;99.90;;;;;;5081009;28;20036;-86
2024/01/31 07:13:54;;;;;;;9.95;8.38;;;4.60;99.90;;;;;;5047448;28;20036;-85
2024/01/31 07:16:19;;;;;;;9.60;8.45;;;4.70;99.90;;;;;;5073838;28;20518;-85
2024/01/31 07:18:45;;;;;;;10.57;9.05;;;4.60;99.90;;;;;;5071927;28;20418;-85
2024/01/31 07:21:22;;;;;;;9.57;8.50;;;4.60;99.90;;;;;;5046166;28;20059;-85
2024/01/31 07:23:47;;;;;;;9.48;8.65;;;4.60;99.90;;;;;;5048071;28;20040;-85
2024/01/31 07:26:22;;;;;;;10.18;8.88;;;4.60;99.90;;;;;;5076639;28;20478;-85
2024/01/31 07:28:49;;;;;;;10.30;9.20;;;4.60;99.90;;;;;;5108132;28;20134;-86
2024/01/31 07:31:14;;;;;;;11.07;8.85;;;4.60;99.90;;;;;;5086440;28;20096;-86
2024/01/31 07:33:40;;;;;;;10.85;9.75;;;4.60;99.90;;;;;;5087772;28;20579;-86
2024/01/31 07:36:07;;;;;;;10.23;8.95;;;4.60;99.90;;;;;;5071263;28;20203;-86
2024/01/31 07:38:32;;;;;;;10.30;9.02;;;4.60;99.90;;;;;;5075149;28;20051;-85
2024/01/31 07:40:58;;;;;;;10.43;9.00;;;4.60;99.90;;;;;;5092520;28;20039;-85
2024/01/31 07:43:24;;;;;;;13.35;10.15;;;4.60;99.90;;;;;;5068620;28;20451;-85
2024/01/31 07:45:50;;;;;;;16.15;9.55;;;4.60;99.90;;;;;;5069030;28;20093;-85
2024/01/31 07:48:15;;;;;;;10.38;9.07;;;4.70;99.90;;;;;;5092235;28;20044;-85
2024/01/31 07:50:41;;;;;;;14.52;9.27;;;4.70;99.90;;;;;;5070422;28;20524;-85
2024/01/31 07:53:06;;;;;;;10.35;9.23;;;4.70;99.90;;;;;;5104720;28;20500;-86
2024/01/31 07:55:32;;;;;;;12.05;9.02;;;4.70;99.90;;;;;;5073267;28;20480;-85
2024/01/31 07:57:58;;;;;;;10.55;9.45;;;4.70;99.90;;;;;;5083459;28;20487;-85
2024/01/31 08:00:24;;;;;;;10.57;9.27;;;4.80;99.90;;;;;;5076952;28;20051;-85
2024/01/31 08:02:49;;;;;;;10.10;9.23;;;4.80;99.90;;;;;;5058539;28;20047;-85
2024/01/31 08:05:15;;;;;;;10.13;9.13;;;4.80;99.90;;;;;;5098716;28;20066;-85
2024/01/31 08:07:44;;;;;;;9.60;8.70;;;4.80;99.90;;;;;;5070299;28;20036;-85
2024/01/31 08:10:11;;;;;;;10.07;9.18;;;4.80;99.90;;;;;;5086852;28;20115;-86
2024/01/31 08:12:37;;;;;;;11.55;9.00;;;4.90;99.90;;;;;;5070484;28;20575;-85
2024/01/31 08:15:03;;;;;;;13.40;9.70;;;4.90;99.90;;;;;;5065196;28;20126;-85
2024/01/31 08:17:29;;;;;;;10.30;9.40;;;4.90;99.90;;;;;;5065945;28;20419;-85
2024/01/31 08:19:54;;;;;;;13.13;10.00;;;5.00;99.90;;;;;;5084551;28;20042;-85
2024/01/31 08:22:20;;;;;;;11.73;10.65;;;5.00;99.90;;;;;;5069720;28;20039;-85
2024/01/31 08:24:45;;;;;;;10.00;8.82;;;5.00;99.90;;;;;;5074545;28;20126;-86
2024/01/31 08:27:11;;;;;;;10.05;9.15;;;5.00;99.90;;;;;;5081976;28;20522;-85
2024/01/31 08:29:38;;;;;;;13.57;9.70;;;5.10;99.90;;;;;;5085714;27;20519;-85
2024/01/31 08:32:04;;;;;;;10.63;9.52;;;5.10;99.90;;;;;;5069344;27;20470;-85
2024/01/31 08:34:30;;;;;;;10.00;9.10;;;5.10;99.90;;;;;;5072604;28;20101;-85
2024/01/31 08:36:55;;;;;;;12.15;9.32;;;5.20;99.90;;;;;;5089857;28;20043;-85
2024/01/31 08:39:22;;;;;;;11.55;10.00;;;5.20;99.90;;;;;;5085477;28;20492;-85
2024/01/31 08:41:48;;;;;;;11.40;9.65;;;5.30;99.90;;;;;;5083830;28;20047;-86
2024/01/31 08:44:15;;;;;;;11.52;10.43;;;5.30;99.90;;;;;;5093405;28;20395;-85
2024/01/31 08:46:41;;;;;;;11.23;10.10;;;5.30;99.90;;;;;;5083115;28;20389;-85
2024/01/31 08:49:06;;;;;;;11.35;10.25;;;5.40;99.90;;;;;;5071260;28;20040;-86
2024/01/31 08:51:33;;;;;;;11.60;10.48;;;5.40;99.90;;;;;;5089572;27;20131;-86
2024/01/31 08:53:59;;;;;;;12.25;11.02;;;5.40;99.90;;;;;;5079817;27;20039;-84
2024/01/31 08:56:24;;;;;;;13.02;10.93;;;5.50;99.90;;;;;;5102244;27;20048;-85
2024/01/31 08:58:50;;;;;;;12.20;10.57;;;5.50;99.90;;;;;;5079078;28;20039;-85
2024/01/31 09:01:16;;;;;;;11.30;10.10;;;5.50;99.90;;;;;;5094579;28;20499;-85
2024/01/31 09:03:41;;;;;;;12.15;10.05;;;5.60;99.90;;;;;;5076952;28;20061;-85
2024/01/31 09:06:07;;;;;;;11.35;10.18;;;5.60;99.90;;;;;;5092713;28;20047;-85
2024/01/31 09:08:33;;;;;;;13.68;12.40;;;5.60;99.90;;;;;;5109515;28;20047;-86
2024/01/31 09:10:58;;;;;;;12.10;10.48;;;5.60;99.90;;;;;;5072444;28;20032;-85
2024/01/31 09:13:24;;;;;;;13.85;11.07;;;5.70;99.90;;;;;;5083820;28;20042;-85
2024/01/31 09:15:50;;;;;;;13.15;11.75;;;5.70;99.90;;;;;;5072036;28;20093;-86
2024/01/31 09:18:16;;;;;;;12.25;10.95;;;5.80;99.90;;;;;;5074899;28;20531;-85
2024/01/31 09:20:41;;;;;;;14.60;11.68;;;5.80;99.90;;;;;;5095189;27;20139;-85
2024/01/31 09:23:07;;;;;;;12.75;11.10;;;5.80;99.90;;;;;;5093356;28;20043;-85
2024/01/31 09:25:33;;;;;;;14.10;11.93;;;5.90;99.90;;;;;;5079983;27;20040;-85
2024/01/31 09:27:59;;;;;;;14.52;13.02;;;6.00;99.90;;;;;;5077655;28;20056;-85
2024/01/31 09:30:24;;;;;;;12.98;11.57;;;6.00;99.90;;;;;;5093151;27;20485;-85
2024/01/31 09:32:50;;;;;;;14.02;11.63;;;6.10;99.90;;;;;;5075540;27;20031;-85
2024/01/31 09:35:16;;;;;;;13.30;11.55;;;6.10;99.90;;;;;;5075479;28;20032;-85
2024/01/31 09:37:41;;;;;;;13.00;11.70;;;6.20;99.90;;;;;;5071677;28;20132;-85
2024/01/31 09:40:08;;;;;;;14.05;11.65;;;6.20;99.90;;;;;;5115703;27;20051;-85
2024/01/31 09:42:33;;;;;;;14.27;12.10;;;6.30;99.90;;;;;;5093586;27;20040;-85
2024/01/31 09:45:01;;;;;;;17.92;12.15;;;6.30;99.90;;;;;;5074799;28;20385;-85
2024/01/31 09:47:28;;;;;;;12.90;11.57;;;6.30;99.90;;;;;;5111180;27;20036;-85
2024/01/31 09:49:56;;;;;;;14.05;12.35;;;6.40;99.90;;;;;;5093327;27;20038;-85
2024/01/31 09:52:27;;;;;;;13.77;12.02;;;6.40;99.90;;;;;;5093609;28;20160;-85
2024/01/31 09:54:59;;;;;;;13.30;11.90;;;6.40;99.90;;;;;;5080184;27;20123;-85
2024/01/31 09:57:25;;;;;;;17.10;12.55;;;6.40;99.90;;;;;;5067205;28;20044;-85
2024/01/31 09:59:51;;;;;;;14.10;12.00;;;6.50;99.90;;;;;;5063708;28;20119;-85
2024/01/31 10:02:17;;;;;;;13.52;12.00;;;6.50;99.90;;;;;;5061868;28;20046;-86
2024/01/31 10:04:49;;;;;;;14.15;12.30;;;6.60;99.90;;;;;;5064235;28;20534;-85
2024/01/31 10:07:25;;;;;;;14.45;12.95;;;6.50;99.90;;;;;;5074981;28;20518;-85
2024/01/31 10:09:53;;;;;;;14.40;12.38;;;6.60;99.90;;;;;;5074105;28;20075;-85
2024/01/31 10:12:20;;;;;;;14.95;13.18;;;6.60;99.90;;;;;;5084848;27;20035;-85
2024/01/31 10:14:48;;;;;;;16.33;12.25;;;6.60;99.90;;;;;;5092889;27;20538;-85
2024/01/31 10:17:14;;;;;;;15.50;12.85;;;6.60;99.90;;;;;;5073725;28;20503;-84
2024/01/31 10:19:40;;;;;;;13.60;11.93;;;6.60;99.90;;;;;;5087458;27;20043;-85
2024/01/31 10:22:06;;;;;;;13.50;12.00;;;6.70;99.90;;;;;;5090695;27;20042;-85
2024/01/31 10:24:32;;;;;;;15.70;12.10;;;6.70;99.90;;;;;;5092768;28;20118;-86
2024/01/31 10:26:58;;;;;;;14.23;12.73;;;6.80;99.90;;;;;;5091752;27;20131;-84
2024/01/31 10:29:23;;;;;;;13.55;12.15;;;6.80;99.90;;;;;;5080538;27;20487;-85
2024/01/31 10:31:52;;;;;;;14.32;12.60;;;6.80;99.90;;;;;;5069786;28;20089;-85
2024/01/31 10:34:18;;;;;;;16.40;11.93;;;6.90;99.90;;;;;;5074817;28;20036;-84
2024/01/31 10:36:45;;;;;;;14.30;12.02;;;6.90;99.90;;;;;;5073396;28;20419;-85
2024/01/31 10:39:13;;;;;;;14.38;12.00;;;6.90;99.90;;;;;;5074817;27;20035;-85
2024/01/31 10:41:42;;;;;;;13.95;12.00;;;7.00;99.90;;;;;;5075397;28;20039;-85
2024/01/31 10:44:13;;;;;;;12.85;11.38;;;7.00;99.90;;;;;;5072615;28;20055;-86
2024/01/31 10:46:39;;;;;;;12.88;11.48;;;7.00;99.90;;;;;;5074805;28;20167;-85
2024/01/31 10:49:05;;;;;;;15.23;12.35;;;7.00;99.90;;;;;;5073024;28;20416;-85
2024/01/31 10:51:33;;;;;;;14.63;12.02;;;7.00;99.90;;;;;;5117675;27;20511;-85
2024/01/31 10:54:01;;;;;;;13.30;11.85;;;7.00;99.90;;;;;;5107891;27;20035;-85
2024/01/31 10:56:27;;;;;;;15.05;12.63;;;7.00;99.90;;;;;;5076297;27;20032;-85
2024/01/31 10:58:55;;;;;;;13.32;11.75;;;7.00;99.90;;;;;;5110627;27;20047;-85
2024/01/31 11:01:21;;;;;;;15.63;13.00;;;7.10;99.90;;;;;;5071476;28;20467;-85
2024/01/31 11:03:47;;;;;;;15.65;13.75;;;7.00;99.90;;;;;;5107503;28;20043;-85
2024/01/31 11:06:13;;;;;;;14.40;12.90;;;7.00;99.90;;;;;;5068592;28;20518;-85
2024/01/31 11:08:41;;;;;;;14.52;12.75;;;7.10;99.90;;;;;;5067696;28;20044;-85
2024/01/31 11:11:11;;;;;;;13.80;12.27;;;7.10;99.90;;;;;;5080244;28;20071;-85
2024/01/31 11:13:36;;;;;;;14.38;12.85;;;7.00;99.90;;;;;;5078863;28;20489;-85
2024/01/31 11:16:04;;;;;;;14.75;12.18;;;7.10;99.90;;;;;;5063343;28;20097;-86
2024/01/31 11:18:30;;;;;;;14.65;12.30;;;7.10;99.90;;;;;;5057233;28;20118;-85
2024/01/31 11:20:56;;;;;;;12.82;11.52;;;7.10;99.90;;;;;;5084560;28;20429;-85
2024/01/31 11:23:25;;;;;;;13.82;12.32;;;7.20;99.90;;;;;;5070635;28;20501;-85
2024/01/31 11:25:52;;;;;;;14.57;12.23;;;7.20;99.90;;;;;;5057952;28;20075;-85
2024/01/31 11:28:19;;;;;;;14.02;12.48;;;7.20;99.90;;;;;;5069343;28;20046;-86
2024/01/31 11:30:51;;;;;;;13.27;11.93;;;7.20;99.90;;;;;;5070192;28;20097;-86
2024/01/31 11:33:18;;;;;;;12.93;11.07;;;7.20;99.90;;;;;;5081933;28;20104;-85
2024/01/31 11:35:44;;;;;;;11.93;10.57;;;7.10;99.90;;;;;;5087972;28;20035;-83
2024/01/31 11:38:12;;;;;;;16.75;11.63;;;7.20;99.90;;;;;;5082356;28;20043;-85
2024/01/31 11:40:38;;;;;;;12.38;11.00;;;7.20;99.90;;;;;;5087320;28;20044;-86
2024/01/31 11:43:04;;;;;;;12.93;11.05;;;7.10;99.90;;;;;;5098388;28;20070;-85
2024/01/31 11:45:30;;;;;;;13.20;11.77;;;7.20;99.90;;;;;;5079462;28;20054;-84
2024/01/31 11:47:57;;;;;;;12.98;11.63;;;7.20;99.90;;;;;;5085636;28;20039;-84
2024/01/31 11:50:25;;;;;;;13.23;11.85;;;7.20;99.90;;;;;;5090781;28;20062;-85
2024/01/31 11:52:52;;;;;;;14.50;12.98;;;7.20;99.90;;;;;;5092882;28;20032;-85
2024/01/31 11:55:21;;;;;;;13.43;12.02;;;7.20;99.90;;;;;;5073608;28;20387;-84
2024/01/31 11:57:47;;;;;;;13.63;12.23;;;7.20;99.90;;;;;;5086795;28;20528;-84
2024/01/31 12:00:13;;;;;;;13.70;12.40;;;7.10;99.90;;;;;;5103303;28;20040;-86
2024/01/31 12:02:39;;;;;;;14.32;12.82;;;7.10;99.90;;;;;;5102567;28;20039;-85
2024/01/31 12:05:05;;;;;;;14.32;12.93;;;7.10;99.90;;;;;;5075462;28;20506;-85
2024/01/31 12:07:31;;;;;;;14.23;12.73;;;7.10;99.90;;;;;;5072141;28;20040;-85
2024/01/31 12:09:56;;;;;;;14.00;12.60;;;7.10;99.90;;;;;;5096414;28;20116;-85
2024/01/31 12:12:22;;;;;;;13.85;12.45;;;7.10;99.90;;;;;;5104855;27;20039;-87
2024/01/31 12:14:49;;;;;;;14.18;12.68;;;7.10;99.90;;;;;;5076811;28;20032;-85
2024/01/31 12:17:19;;;;;;;14.43;12.93;;;7.10;99.90;;;;;;5075860;28;20043;-83
2024/01/31 12:19:45;;;;;;;14.15;12.65;;;7.10;99.90;;;;;;5084252;28;20457;-85
2024/01/31 12:22:11;;;;;;;13.95;12.43;;;7.10;99.90;;;;;;5079929;28;20043;-86
2024/01/31 12:24:37;;;;;;;13.95;12.55;;;7.10;99.90;;;;;;5109262;27;20044;-85
2024/01/31 12:27:03;;;;;;;13.13;11.82;;;7.10;99.90;;;;;;5076607;28;20520;-84
2024/01/31 12:29:30;;;;;;;13.75;12.45;;;7.10;99.90;;;;;;5057366;28;20040;-85
2024/01/31 12:31:55;;;;;;;13.90;12.50;;;7.10;99.90;;;;;;5066438;28;20124;-84
2024/01/31 12:34:21;;;;;;;13.70;12.30;;;7.20;99.90;;;;;;5069136;28;20131;-84
2024/01/31 12:36:47;;;;;;;13.52;12.15;;;7.20;99.90;;;;;;5068929;28;20554;-85
2024/01/31 12:39:17;;;;;;;14.63;12.80;;;7.20;99.90;;;;;;5059695;28;20105;-83
2024/01/31 12:41:42;;;;;;;13.15;11.75;;;7.20;99.90;;;;;;5051828;28;20044;-84